sensor_id;sensor_type;location;lat;lon;timestamp;P1;durP1;ratioP1;P2;durP2;ratioP2
13439;SDS011;6792;57.698;11.946;2023-04-24T00:01:44;18.50;;;12.20;;
13439;SDS011;6792;57.698;11.946;2023-04-24T00:04:14;23.20;;;13.97;;
13439;SDS011;6792;57.698;11.946;2023-04-24T00:06:43;19.50;;;13.03;;
13439;SDS011;6792;57.698;11.946;2023-04-24T00:09:14;17.70;;;12.37;;
13439;SDS011;6792;57.698;11.946;2023-04-24T00:11:43;15.87;;;11.37;;
13439;SDS011;6792;57.698;11.946;2023-04-24T00:14:12;21.80;;;14.00;;
13439;SDS011;6792;57.698;11.946;2023-04-24T00:16:42;16.63;;;12.20;;
13439;SDS011;6792;57.698;11.946;2023-04-24T00:19:11;20.33;;;13.73;;
13439;SDS011;6792;57.698;11.946;2023-04-24T00:21:40;18.20;;;12.57;;
13439;SDS011;6792;57.698;11.946;2023-04-24T00:24:09;17.53;;;12.67;;
13439;SDS011;6792;57.698;11.946;2023-04-24T00:26:38;21.53;;;14.33;;
13439;SDS011;6792;57.698;11.946;2023-04-24T00:29:08;16.07;;;11.23;;
13439;SDS011;6792;57.698;11.946;2023-04-24T00:31:37;21.83;;;13.50;;
13439;SDS011;6792;57.698;11.946;2023-04-24T00:34:07;16.20;;;12.33;;
13439;SDS011;6792;57.698;11.946;2023-04-24T00:36:36;17.30;;;11.53;;
13439;SDS011;6792;57.698;11.946;2023-04-24T00:39:06;20.57;;;13.30;;
13439;SDS011;6792;57.698;11.946;2023-04-24T00:41:36;16.00;;;11.67;;
13439;SDS011;6792;57.698;11.946;2023-04-24T00:44:05;18.87;;;13.07;;
13439;SDS011;6792;57.698;11.946;2023-04-24T00:46:34;16.17;;;11.80;;
13439;SDS011;6792;57.698;11.946;2023-04-24T00:49:05;20.60;;;13.23;;
13439;SDS011;6792;57.698;11.946;2023-04-24T00:51:34;18.20;;;11.90;;
13439;SDS011;6792;57.698;11.946;2023-04-24T00:54:03;22.23;;;13.17;;
13439;SDS011;6792;57.698;11.946;2023-04-24T00:56:33;16.97;;;11.53;;
13439;SDS011;6792;57.698;11.946;2023-04-24T00:59:02;22.23;;;14.37;;
13439;SDS011;6792;57.698;11.946;2023-04-24T01:01:32;17.07;;;12.43;;
13439;SDS011;6792;57.698;11.946;2023-04-24T01:04:01;22.53;;;12.70;;
13439;SDS011;6792;57.698;11.946;2023-04-24T01:06:32;15.50;;;11.90;;
13439;SDS011;6792;57.698;11.946;2023-04-24T01:09:02;20.73;;;13.53;;
13439;SDS011;6792;57.698;11.946;2023-04-24T01:11:34;17.00;;;12.47;;
13439;SDS011;6792;57.698;11.946;2023-04-24T01:14:04;22.47;;;13.87;;
13439;SDS011;6792;57.698;11.946;2023-04-24T01:16:33;16.90;;;12.13;;
13439;SDS011;6792;57.698;11.946;2023-04-24T01:19:07;20.67;;;13.40;;
13439;SDS011;6792;57.698;11.946;2023-04-24T01:21:37;14.47;;;11.57;;
13439;SDS011;6792;57.698;11.946;2023-04-24T01:24:08;14.33;;;11.20;;
13439;SDS011;6792;57.698;11.946;2023-04-24T01:26:37;15.87;;;11.73;;
13439;SDS011;6792;57.698;11.946;2023-04-24T01:29:07;17.63;;;12.37;;
13439;SDS011;6792;57.698;11.946;2023-04-24T01:31:36;16.00;;;11.33;;
13439;SDS011;6792;57.698;11.946;2023-04-24T01:34:06;20.23;;;13.90;;
13439;SDS011;6792;57.698;11.946;2023-04-24T01:36:35;15.83;;;11.57;;
13439;SDS011;6792;57.698;11.946;2023-04-24T01:39:05;20.27;;;12.97;;
13439;SDS011;6792;57.698;11.946;2023-04-24T01:41:34;15.03;;;11.43;;
13439;SDS011;6792;57.698;11.946;2023-04-24T01:44:04;20.73;;;13.57;;
13439;SDS011;6792;57.698;11.946;2023-04-24T01:46:33;17.13;;;11.43;;
13439;SDS011;6792;57.698;11.946;2023-04-24T01:49:02;21.47;;;13.30;;
13439;SDS011;6792;57.698;11.946;2023-04-24T01:51:31;14.53;;;11.57;;
13439;SDS011;6792;57.698;11.946;2023-04-24T01:54:01;20.17;;;13.10;;
13439;SDS011;6792;57.698;11.946;2023-04-24T01:56:30;14.70;;;11.53;;
13439;SDS011;6792;57.698;11.946;2023-04-24T01:59:02;20.97;;;13.37;;
13439;SDS011;6792;57.698;11.946;2023-04-24T02:01:33;15.77;;;11.30;;
13439;SDS011;6792;57.698;11.946;2023-04-24T02:04:04;19.60;;;13.13;;
13439;SDS011;6792;57.698;11.946;2023-04-24T02:06:34;16.30;;;11.40;;
13439;SDS011;6792;57.698;11.946;2023-04-24T02:09:03;19.30;;;12.23;;
13439;SDS011;6792;57.698;11.946;2023-04-24T02:11:32;15.57;;;11.03;;
13439;SDS011;6792;57.698;11.946;2023-04-24T02:14:02;18.53;;;11.77;;
13439;SDS011;6792;57.698;11.946;2023-04-24T02:16:31;19.10;;;12.27;;
13439;SDS011;6792;57.698;11.946;2023-04-24T02:19:02;14.30;;;10.57;;
13439;SDS011;6792;57.698;11.946;2023-04-24T02:21:31;24.37;;;12.60;;
13439;SDS011;6792;57.698;11.946;2023-04-24T02:24:00;15.10;;;10.77;;
13439;SDS011;6792;57.698;11.946;2023-04-24T02:26:29;18.30;;;12.47;;
13439;SDS011;6792;57.698;11.946;2023-04-24T02:28:59;14.23;;;10.57;;
13439;SDS011;6792;57.698;11.946;2023-04-24T02:31:28;20.20;;;12.87;;
13439;SDS011;6792;57.698;11.946;2023-04-24T02:33:57;13.63;;;10.97;;
13439;SDS011;6792;57.698;11.946;2023-04-24T02:36:27;18.07;;;12.37;;
13439;SDS011;6792;57.698;11.946;2023-04-24T02:38:56;15.33;;;11.43;;
13439;SDS011;6792;57.698;11.946;2023-04-24T02:41:25;18.90;;;11.63;;
13439;SDS011;6792;57.698;11.946;2023-04-24T02:43:57;15.93;;;11.37;;
13439;SDS011;6792;57.698;11.946;2023-04-24T02:46:26;17.17;;;12.30;;
13439;SDS011;6792;57.698;11.946;2023-04-24T02:48:56;13.13;;;9.93;;
13439;SDS011;6792;57.698;11.946;2023-04-24T02:51:25;16.53;;;12.00;;
13439;SDS011;6792;57.698;11.946;2023-04-24T02:53:54;16.00;;;11.63;;
13439;SDS011;6792;57.698;11.946;2023-04-24T02:56:24;16.77;;;11.53;;
13439;SDS011;6792;57.698;11.946;2023-04-24T02:58:53;15.07;;;10.43;;
13439;SDS011;6792;57.698;11.946;2023-04-24T03:01:22;19.10;;;11.37;;
13439;SDS011;6792;57.698;11.946;2023-04-24T03:03:51;13.60;;;10.17;;
13439;SDS011;6792;57.698;11.946;2023-04-24T03:06:20;16.77;;;11.83;;
13439;SDS011;6792;57.698;11.946;2023-04-24T03:08:49;15.20;;;10.90;;
13439;SDS011;6792;57.698;11.946;2023-04-24T03:11:19;15.47;;;12.17;;
13439;SDS011;6792;57.698;11.946;2023-04-24T03:13:48;13.97;;;10.80;;
13439;SDS011;6792;57.698;11.946;2023-04-24T03:16:17;14.40;;;10.50;;
13439;SDS011;6792;57.698;11.946;2023-04-24T03:18:46;18.50;;;11.37;;
13439;SDS011;6792;57.698;11.946;2023-04-24T03:21:15;13.53;;;10.03;;
13439;SDS011;6792;57.698;11.946;2023-04-24T03:23:45;17.20;;;11.23;;
13439;SDS011;6792;57.698;11.946;2023-04-24T03:26:14;14.90;;;9.97;;
13439;SDS011;6792;57.698;11.946;2023-04-24T03:28:43;17.40;;;11.37;;
13439;SDS011;6792;57.698;11.946;2023-04-24T03:31:12;16.13;;;10.40;;
13439;SDS011;6792;57.698;11.946;2023-04-24T03:33:45;14.80;;;11.00;;
13439;SDS011;6792;57.698;11.946;2023-04-24T03:36:14;13.17;;;10.03;;
13439;SDS011;6792;57.698;11.946;2023-04-24T03:38:48;17.93;;;11.50;;
13439;SDS011;6792;57.698;11.946;2023-04-24T03:41:17;14.93;;;10.30;;
13439;SDS011;6792;57.698;11.946;2023-04-24T03:43:46;15.07;;;10.80;;
13439;SDS011;6792;57.698;11.946;2023-04-24T03:46:16;13.37;;;9.70;;
13439;SDS011;6792;57.698;11.946;2023-04-24T03:48:45;13.00;;;9.13;;
13439;SDS011;6792;57.698;11.946;2023-04-24T03:51:14;18.40;;;11.67;;
13439;SDS011;6792;57.698;11.946;2023-04-24T03:53:43;12.53;;;9.27;;
13439;SDS011;6792;57.698;11.946;2023-04-24T03:56:13;16.43;;;11.73;;
13439;SDS011;6792;57.698;11.946;2023-04-24T03:58:42;13.73;;;9.53;;
13439;SDS011;6792;57.698;11.946;2023-04-24T04:01:12;17.47;;;11.17;;
13439;SDS011;6792;57.698;11.946;2023-04-24T04:03:42;10.93;;;8.80;;
13439;SDS011;6792;57.698;11.946;2023-04-24T04:06:11;20.97;;;11.30;;
13439;SDS011;6792;57.698;11.946;2023-04-24T04:08:41;12.37;;;9.53;;
13439;SDS011;6792;57.698;11.946;2023-04-24T04:11:10;17.13;;;11.27;;
13439;SDS011;6792;57.698;11.946;2023-04-24T04:13:39;13.13;;;8.90;;
13439;SDS011;6792;57.698;11.946;2023-04-24T04:16:09;15.80;;;10.63;;
13439;SDS011;6792;57.698;11.946;2023-04-24T04:18:39;13.00;;;9.73;;
13439;SDS011;6792;57.698;11.946;2023-04-24T04:21:08;16.67;;;11.30;;
13439;SDS011;6792;57.698;11.946;2023-04-24T04:23:37;12.43;;;9.00;;
13439;SDS011;6792;57.698;11.946;2023-04-24T04:26:07;14.63;;;10.60;;
13439;SDS011;6792;57.698;11.946;2023-04-24T04:28:36;12.20;;;9.03;;
13439;SDS011;6792;57.698;11.946;2023-04-24T04:31:05;16.70;;;10.67;;
13439;SDS011;6792;57.698;11.946;2023-04-24T04:33:34;13.70;;;9.37;;
13439;SDS011;6792;57.698;11.946;2023-04-24T04:36:06;13.80;;;10.27;;
13439;SDS011;6792;57.698;11.946;2023-04-24T04:38:35;12.17;;;8.87;;
13439;SDS011;6792;57.698;11.946;2023-04-24T04:41:04;13.40;;;9.80;;
13439;SDS011;6792;57.698;11.946;2023-04-24T04:43:33;13.70;;;8.53;;
13439;SDS011;6792;57.698;11.946;2023-04-24T04:46:02;15.50;;;10.27;;
13439;SDS011;6792;57.698;11.946;2023-04-24T04:48:32;15.93;;;9.27;;
13439;SDS011;6792;57.698;11.946;2023-04-24T04:51:01;13.87;;;9.93;;
13439;SDS011;6792;57.698;11.946;2023-04-24T04:53:31;11.43;;;9.00;;
13439;SDS011;6792;57.698;11.946;2023-04-24T04:56:00;15.20;;;9.80;;
13439;SDS011;6792;57.698;11.946;2023-04-24T04:58:29;12.07;;;8.37;;
13439;SDS011;6792;57.698;11.946;2023-04-24T05:00:58;12.30;;;8.67;;
13439;SDS011;6792;57.698;11.946;2023-04-24T05:03:28;12.20;;;8.93;;
13439;SDS011;6792;57.698;11.946;2023-04-24T05:05:59;15.67;;;10.03;;
13439;SDS011;6792;57.698;11.946;2023-04-24T05:08:29;11.20;;;8.67;;
13439;SDS011;6792;57.698;11.946;2023-04-24T05:10:58;14.47;;;10.33;;
13439;SDS011;6792;57.698;11.946;2023-04-24T05:13:27;13.57;;;8.63;;
13439;SDS011;6792;57.698;11.946;2023-04-24T05:15:56;12.90;;;8.00;;
13439;SDS011;6792;57.698;11.946;2023-04-24T05:18:26;11.63;;;8.43;;
13439;SDS011;6792;57.698;11.946;2023-04-24T05:20:55;13.03;;;9.53;;
13439;SDS011;6792;57.698;11.946;2023-04-24T05:23:24;10.20;;;8.40;;
13439;SDS011;6792;57.698;11.946;2023-04-24T05:25:53;15.00;;;9.57;;
13439;SDS011;6792;57.698;11.946;2023-04-24T05:28:23;13.77;;;8.43;;
13439;SDS011;6792;57.698;11.946;2023-04-24T05:30:54;12.90;;;9.47;;
13439;SDS011;6792;57.698;11.946;2023-04-24T05:33:25;15.30;;;9.00;;
13439;SDS011;6792;57.698;11.946;2023-04-24T05:35:54;10.90;;;7.33;;
13439;SDS011;6792;57.698;11.946;2023-04-24T05:38:24;11.97;;;9.50;;
13439;SDS011;6792;57.698;11.946;2023-04-24T05:40:53;12.83;;;8.87;;
13439;SDS011;6792;57.698;11.946;2023-04-24T05:43:22;12.73;;;8.70;;
13439;SDS011;6792;57.698;11.946;2023-04-24T05:45:51;10.40;;;8.23;;
13439;SDS011;6792;57.698;11.946;2023-04-24T05:48:21;14.53;;;8.50;;
13439;SDS011;6792;57.698;11.946;2023-04-24T05:50:50;19.07;;;9.80;;
13439;SDS011;6792;57.698;11.946;2023-04-24T05:53:20;15.63;;;8.33;;
13439;SDS011;6792;57.698;11.946;2023-04-24T05:55:49;13.57;;;8.80;;
13439;SDS011;6792;57.698;11.946;2023-04-24T05:58:18;11.17;;;8.80;;
13439;SDS011;6792;57.698;11.946;2023-04-24T06:00:47;12.00;;;8.73;;
13439;SDS011;6792;57.698;11.946;2023-04-24T06:03:17;11.17;;;7.40;;
13439;SDS011;6792;57.698;11.946;2023-04-24T06:05:46;15.23;;;9.73;;
13439;SDS011;6792;57.698;11.946;2023-04-24T06:08:17;13.23;;;8.17;;
13439;SDS011;6792;57.698;11.946;2023-04-24T06:10:46;9.83;;;7.57;;
13439;SDS011;6792;57.698;11.946;2023-04-24T06:13:18;15.57;;;9.40;;
13439;SDS011;6792;57.698;11.946;2023-04-24T06:15:48;12.67;;;8.10;;
13439;SDS011;6792;57.698;11.946;2023-04-24T06:18:17;12.63;;;9.50;;
13439;SDS011;6792;57.698;11.946;2023-04-24T06:20:47;12.57;;;8.10;;
13439;SDS011;6792;57.698;11.946;2023-04-24T06:23:16;14.43;;;10.00;;
13439;SDS011;6792;57.698;11.946;2023-04-24T06:25:45;11.07;;;7.87;;
13439;SDS011;6792;57.698;11.946;2023-04-24T06:28:14;17.93;;;9.50;;
13439;SDS011;6792;57.698;11.946;2023-04-24T06:30:46;12.00;;;8.03;;
13439;SDS011;6792;57.698;11.946;2023-04-24T06:33:16;12.07;;;7.80;;
13439;SDS011;6792;57.698;11.946;2023-04-24T06:35:46;12.77;;;7.90;;
13439;SDS011;6792;57.698;11.946;2023-04-24T06:38:15;16.00;;;9.33;;
13439;SDS011;6792;57.698;11.946;2023-04-24T06:40:46;12.30;;;7.83;;
13439;SDS011;6792;57.698;11.946;2023-04-24T06:43:15;12.80;;;8.17;;
13439;SDS011;6792;57.698;11.946;2023-04-24T06:45:44;11.30;;;7.53;;
13439;SDS011;6792;57.698;11.946;2023-04-24T06:48:17;9.97;;;7.60;;
13439;SDS011;6792;57.698;11.946;2023-04-24T06:50:46;11.23;;;7.20;;
13439;SDS011;6792;57.698;11.946;2023-04-24T06:53:18;10.97;;;8.57;;
13439;SDS011;6792;57.698;11.946;2023-04-24T06:55:47;9.77;;;7.33;;
13439;SDS011;6792;57.698;11.946;2023-04-24T06:58:17;11.80;;;7.57;;
13439;SDS011;6792;57.698;11.946;2023-04-24T07:00:46;11.00;;;7.80;;
13439;SDS011;6792;57.698;11.946;2023-04-24T07:03:15;10.20;;;7.40;;
13439;SDS011;6792;57.698;11.946;2023-04-24T07:05:44;14.37;;;7.37;;
13439;SDS011;6792;57.698;11.946;2023-04-24T07:08:14;9.33;;;7.60;;
13439;SDS011;6792;57.698;11.946;2023-04-24T07:10:44;11.20;;;8.17;;
13439;SDS011;6792;57.698;11.946;2023-04-24T07:13:13;9.17;;;7.03;;
13439;SDS011;6792;57.698;11.946;2023-04-24T07:15:45;9.90;;;7.37;;
13439;SDS011;6792;57.698;11.946;2023-04-24T07:18:17;10.37;;;7.93;;
13439;SDS011;6792;57.698;11.946;2023-04-24T07:23:23;12.13;;;8.10;;
13439;SDS011;6792;57.698;11.946;2023-04-24T07:25:52;9.13;;;7.53;;
13439;SDS011;6792;57.698;11.946;2023-04-24T07:28:21;10.63;;;8.03;;
13439;SDS011;6792;57.698;11.946;2023-04-24T07:30:51;13.00;;;8.43;;
13439;SDS011;6792;57.698;11.946;2023-04-24T07:33:20;11.77;;;6.97;;
13439;SDS011;6792;57.698;11.946;2023-04-24T07:35:49;11.87;;;7.50;;
13439;SDS011;6792;57.698;11.946;2023-04-24T07:38:19;11.30;;;8.37;;
13439;SDS011;6792;57.698;11.946;2023-04-24T07:40:48;12.03;;;8.43;;
13439;SDS011;6792;57.698;11.946;2023-04-24T07:43:17;9.10;;;7.87;;
13439;SDS011;6792;57.698;11.946;2023-04-24T07:45:47;13.27;;;7.90;;
13439;SDS011;6792;57.698;11.946;2023-04-24T07:48:17;9.70;;;7.63;;
13439;SDS011;6792;57.698;11.946;2023-04-24T07:50:48;11.57;;;7.47;;
13439;SDS011;6792;57.698;11.946;2023-04-24T07:53:17;11.30;;;7.57;;
13439;SDS011;6792;57.698;11.946;2023-04-24T07:55:46;9.57;;;7.67;;
13439;SDS011;6792;57.698;11.946;2023-04-24T07:58:17;10.30;;;8.10;;
13439;SDS011;6792;57.698;11.946;2023-04-24T08:00:48;11.57;;;8.20;;
13439;SDS011;6792;57.698;11.946;2023-04-24T08:03:17;11.07;;;7.97;;
13439;SDS011;6792;57.698;11.946;2023-04-24T08:05:50;10.20;;;8.03;;
13439;SDS011;6792;57.698;11.946;2023-04-24T08:08:20;10.27;;;7.93;;
13439;SDS011;6792;57.698;11.946;2023-04-24T08:10:51;12.70;;;8.40;;
13439;SDS011;6792;57.698;11.946;2023-04-24T08:13:24;11.83;;;8.43;;
13439;SDS011;6792;57.698;11.946;2023-04-24T08:15:52;9.87;;;7.93;;
13439;SDS011;6792;57.698;11.946;2023-04-24T08:18:21;11.20;;;7.97;;
13439;SDS011;6792;57.698;11.946;2023-04-24T08:20:51;14.33;;;9.38;;
13439;SDS011;6792;57.698;11.946;2023-04-24T08:23:26;10.00;;;8.27;;
13439;SDS011;6792;57.698;11.946;2023-04-24T08:25:56;10.53;;;7.77;;
13439;SDS011;6792;57.698;11.946;2023-04-24T08:28:26;10.40;;;7.90;;
13439;SDS011;6792;57.698;11.946;2023-04-24T08:30:59;8.67;;;7.17;;
13439;SDS011;6792;57.698;11.946;2023-04-24T08:33:29;9.93;;;7.77;;
13439;SDS011;6792;57.698;11.946;2023-04-24T08:36:01;8.30;;;7.03;;
13439;SDS011;6792;57.698;11.946;2023-04-24T08:38:31;12.67;;;9.10;;
13439;SDS011;6792;57.698;11.946;2023-04-24T08:41:01;12.67;;;7.97;;
13439;SDS011;6792;57.698;11.946;2023-04-24T08:43:31;10.60;;;7.00;;
13439;SDS011;6792;57.698;11.946;2023-04-24T08:46:03;9.37;;;7.00;;
13439;SDS011;6792;57.698;11.946;2023-04-24T08:48:33;8.43;;;6.63;;
13439;SDS011;6792;57.698;11.946;2023-04-24T08:51:02;8.43;;;6.77;;
13439;SDS011;6792;57.698;11.946;2023-04-24T08:53:34;11.87;;;7.67;;
13439;SDS011;6792;57.698;11.946;2023-04-24T08:56:04;9.17;;;7.13;;
13439;SDS011;6792;57.698;11.946;2023-04-24T08:58:34;8.93;;;6.90;;
13439;SDS011;6792;57.698;11.946;2023-04-24T09:01:04;7.83;;;6.20;;
13439;SDS011;6792;57.698;11.946;2023-04-24T09:03:34;8.47;;;6.17;;
13439;SDS011;6792;57.698;11.946;2023-04-24T09:06:03;9.20;;;6.77;;
13439;SDS011;6792;57.698;11.946;2023-04-24T09:08:35;7.37;;;5.67;;
13439;SDS011;6792;57.698;11.946;2023-04-24T09:11:06;7.70;;;5.70;;
13439;SDS011;6792;57.698;11.946;2023-04-24T09:13:37;8.23;;;6.67;;
13439;SDS011;6792;57.698;11.946;2023-04-24T09:16:07;6.83;;;5.23;;
13439;SDS011;6792;57.698;11.946;2023-04-24T09:18:39;7.80;;;6.30;;
13439;SDS011;6792;57.698;11.946;2023-04-24T09:21:09;9.37;;;5.13;;
13439;SDS011;6792;57.698;11.946;2023-04-24T09:23:39;5.33;;;4.60;;
13439;SDS011;6792;57.698;11.946;2023-04-24T09:26:09;8.23;;;5.40;;
13439;SDS011;6792;57.698;11.946;2023-04-24T09:28:40;5.47;;;4.63;;
13439;SDS011;6792;57.698;11.946;2023-04-24T09:31:11;7.47;;;5.70;;
13439;SDS011;6792;57.698;11.946;2023-04-24T09:33:48;7.97;;;4.60;;
13439;SDS011;6792;57.698;11.946;2023-04-24T09:36:27;8.53;;;5.33;;
13439;SDS011;6792;57.698;11.946;2023-04-24T09:38:59;6.97;;;5.43;;
13439;SDS011;6792;57.698;11.946;2023-04-24T09:41:31;6.33;;;4.90;;
13439;SDS011;6792;57.698;11.946;2023-04-24T09:44:10;5.97;;;5.00;;
13439;SDS011;6792;57.698;11.946;2023-04-24T09:46:40;8.63;;;6.10;;
13439;SDS011;6792;57.698;11.946;2023-04-24T09:49:13;8.07;;;5.60;;
13439;SDS011;6792;57.698;11.946;2023-04-24T09:51:43;7.90;;;5.23;;
13439;SDS011;6792;57.698;11.946;2023-04-24T09:54:16;7.93;;;5.27;;
13439;SDS011;6792;57.698;11.946;2023-04-24T09:56:47;10.13;;;6.47;;
13439;SDS011;6792;57.698;11.946;2023-04-24T09:59:18;8.43;;;5.80;;
13439;SDS011;6792;57.698;11.946;2023-04-24T10:01:48;7.77;;;6.37;;
13439;SDS011;6792;57.698;11.946;2023-04-24T10:04:19;7.33;;;5.10;;
13439;SDS011;6792;57.698;11.946;2023-04-24T10:06:51;9.13;;;6.80;;
13439;SDS011;6792;57.698;11.946;2023-04-24T10:09:21;8.60;;;5.37;;
13439;SDS011;6792;57.698;11.946;2023-04-24T10:11:53;7.80;;;5.20;;
13439;SDS011;6792;57.698;11.946;2023-04-24T10:14:22;7.40;;;5.70;;
13439;SDS011;6792;57.698;11.946;2023-04-24T10:16:53;8.40;;;5.93;;
13439;SDS011;6792;57.698;11.946;2023-04-24T10:19:24;6.83;;;5.20;;
13439;SDS011;6792;57.698;11.946;2023-04-24T10:21:54;8.93;;;6.43;;
13439;SDS011;6792;57.698;11.946;2023-04-24T10:24:25;8.17;;;5.70;;
13439;SDS011;6792;57.698;11.946;2023-04-24T10:26:55;8.57;;;6.43;;
13439;SDS011;6792;57.698;11.946;2023-04-24T10:29:26;6.57;;;5.17;;
13439;SDS011;6792;57.698;11.946;2023-04-24T10:31:56;6.77;;;5.20;;
13439;SDS011;6792;57.698;11.946;2023-04-24T10:34:26;7.60;;;5.80;;
13439;SDS011;6792;57.698;11.946;2023-04-24T10:36:56;6.53;;;5.43;;
13439;SDS011;6792;57.698;11.946;2023-04-24T10:39:25;9.33;;;6.90;;
13439;SDS011;6792;57.698;11.946;2023-04-24T10:41:55;7.63;;;6.10;;
13439;SDS011;6792;57.698;11.946;2023-04-24T10:44:24;9.47;;;6.40;;
13439;SDS011;6792;57.698;11.946;2023-04-24T10:46:55;7.63;;;5.37;;
13439;SDS011;6792;57.698;11.946;2023-04-24T10:49:31;6.33;;;5.40;;
13439;SDS011;6792;57.698;11.946;2023-04-24T10:52:01;6.73;;;5.60;;
13439;SDS011;6792;57.698;11.946;2023-04-24T10:54:35;9.27;;;6.57;;
13439;SDS011;6792;57.698;11.946;2023-04-24T11:00:13;6.97;;;5.50;;
13439;SDS011;6792;57.698;11.946;2023-04-24T11:02:46;5.77;;;5.10;;
13439;SDS011;6792;57.698;11.946;2023-04-24T11:05:16;6.90;;;5.13;;
13439;SDS011;6792;57.698;11.946;2023-04-24T11:10:40;6.23;;;4.77;;
13439;SDS011;6792;57.698;11.946;2023-04-24T11:13:17;5.10;;;4.50;;
13439;SDS011;6792;57.698;11.946;2023-04-24T11:18:40;4.97;;;4.47;;
13439;SDS011;6792;57.698;11.946;2023-04-24T11:21:15;7.53;;;5.03;;
13439;SDS011;6792;57.698;11.946;2023-04-24T11:23:45;5.40;;;4.77;;
13439;SDS011;6792;57.698;11.946;2023-04-24T11:26:18;5.87;;;4.43;;
13439;SDS011;6792;57.698;11.946;2023-04-24T11:28:50;4.90;;;4.40;;
13439;SDS011;6792;57.698;11.946;2023-04-24T11:31:35;4.83;;;4.28;;
13439;SDS011;6792;57.698;11.946;2023-04-24T11:34:11;4.60;;;4.20;;
13439;SDS011;6792;57.698;11.946;2023-04-24T11:36:43;4.85;;;4.45;;
13439;SDS011;6792;57.698;11.946;2023-04-24T11:39:13;5.62;;;4.33;;
13439;SDS011;6792;57.698;11.946;2023-04-24T11:41:43;5.15;;;4.22;;
13439;SDS011;6792;57.698;11.946;2023-04-24T11:44:14;4.70;;;4.30;;
13439;SDS011;6792;57.698;11.946;2023-04-24T11:46:48;4.53;;;3.90;;
13439;SDS011;6792;57.698;11.946;2023-04-24T11:49:17;4.58;;;3.80;;
13439;SDS011;6792;57.698;11.946;2023-04-24T11:51:46;3.90;;;3.50;;
13439;SDS011;6792;57.698;11.946;2023-04-24T11:54:16;7.15;;;3.98;;
13439;SDS011;6792;57.698;11.946;2023-04-24T11:56:47;4.60;;;4.00;;
13439;SDS011;6792;57.698;11.946;2023-04-24T11:59:17;4.30;;;3.90;;
13439;SDS011;6792;57.698;11.946;2023-04-24T12:01:49;5.12;;;3.85;;
13439;SDS011;6792;57.698;11.946;2023-04-24T12:04:18;5.80;;;4.00;;
13439;SDS011;6792;57.698;11.946;2023-04-24T12:07:00;4.97;;;3.62;;
13439;SDS011;6792;57.698;11.946;2023-04-24T12:09:32;3.87;;;3.58;;
13439;SDS011;6792;57.698;11.946;2023-04-24T12:12:11;4.95;;;3.67;;
13439;SDS011;6792;57.698;11.946;2023-04-24T12:14:45;4.12;;;3.70;;
13439;SDS011;6792;57.698;11.946;2023-04-24T12:17:17;5.12;;;3.60;;
13439;SDS011;6792;57.698;11.946;2023-04-24T12:19:48;5.05;;;4.03;;
13439;SDS011;6792;57.698;11.946;2023-04-24T12:22:17;4.90;;;3.60;;
13439;SDS011;6792;57.698;11.946;2023-04-24T12:24:57;6.12;;;3.20;;
13439;SDS011;6792;57.698;11.946;2023-04-24T12:27:32;5.20;;;3.42;;
13439;SDS011;6792;57.698;11.946;2023-04-24T12:30:02;3.87;;;3.10;;
13439;SDS011;6792;57.698;11.946;2023-04-24T12:32:33;3.30;;;2.70;;
13439;SDS011;6792;57.698;11.946;2023-04-24T12:35:04;6.33;;;3.12;;
13439;SDS011;6792;57.698;11.946;2023-04-24T12:37:34;6.50;;;2.80;;
13439;SDS011;6792;57.698;11.946;2023-04-24T12:40:04;3.72;;;2.77;;
13439;SDS011;6792;57.698;11.946;2023-04-24T12:42:42;4.47;;;2.80;;
13439;SDS011;6792;57.698;11.946;2023-04-24T12:45:10;4.17;;;3.02;;
13439;SDS011;6792;57.698;11.946;2023-04-24T12:47:40;3.92;;;2.55;;
13439;SDS011;6792;57.698;11.946;2023-04-24T12:50:11;2.72;;;2.50;;
13439;SDS011;6792;57.698;11.946;2023-04-24T12:52:41;4.62;;;2.90;;
13439;SDS011;6792;57.698;11.946;2023-04-24T12:55:12;3.02;;;2.83;;
13439;SDS011;6792;57.698;11.946;2023-04-24T12:57:43;7.83;;;3.17;;
13439;SDS011;6792;57.698;11.946;2023-04-24T13:00:16;3.20;;;2.77;;
13439;SDS011;6792;57.698;11.946;2023-04-24T13:02:46;3.83;;;2.60;;
13439;SDS011;6792;57.698;11.946;2023-04-24T13:05:15;2.58;;;2.35;;
13439;SDS011;6792;57.698;11.946;2023-04-24T13:07:45;3.27;;;2.70;;
13439;SDS011;6792;57.698;11.946;2023-04-24T13:10:14;4.53;;;2.85;;
13439;SDS011;6792;57.698;11.946;2023-04-24T13:12:43;3.95;;;2.87;;
13439;SDS011;6792;57.698;11.946;2023-04-24T13:15:12;4.30;;;2.87;;
13439;SDS011;6792;57.698;11.946;2023-04-24T13:17:43;4.45;;;3.20;;
13439;SDS011;6792;57.698;11.946;2023-04-24T13:20:12;3.70;;;2.70;;
13439;SDS011;6792;57.698;11.946;2023-04-24T13:22:42;3.80;;;2.98;;
13439;SDS011;6792;57.698;11.946;2023-04-24T13:25:11;2.40;;;2.20;;
13439;SDS011;6792;57.698;11.946;2023-04-24T13:27:42;3.98;;;3.58;;
13439;SDS011;6792;57.698;11.946;2023-04-24T13:30:12;5.15;;;3.17;;
13439;SDS011;6792;57.698;11.946;2023-04-24T13:32:43;4.55;;;2.60;;
13439;SDS011;6792;57.698;11.946;2023-04-24T13:35:15;3.62;;;2.70;;
13439;SDS011;6792;57.698;11.946;2023-04-24T13:37:44;3.47;;;3.15;;
13439;SDS011;6792;57.698;11.946;2023-04-24T13:40:14;4.20;;;3.40;;
13439;SDS011;6792;57.698;11.946;2023-04-24T13:42:43;4.37;;;3.20;;
13439;SDS011;6792;57.698;11.946;2023-04-24T13:45:12;3.87;;;3.00;;
13439;SDS011;6792;57.698;11.946;2023-04-24T13:47:46;4.67;;;3.20;;
13439;SDS011;6792;57.698;11.946;2023-04-24T13:50:15;3.85;;;3.15;;
13439;SDS011;6792;57.698;11.946;2023-04-24T13:52:44;5.72;;;3.17;;
13439;SDS011;6792;57.698;11.946;2023-04-24T13:55:14;4.15;;;3.10;;
13439;SDS011;6792;57.698;11.946;2023-04-24T13:57:43;3.95;;;3.27;;
13439;SDS011;6792;57.698;11.946;2023-04-24T14:00:13;3.52;;;3.05;;
13439;SDS011;6792;57.698;11.946;2023-04-24T14:02:47;3.27;;;2.98;;
13439;SDS011;6792;57.698;11.946;2023-04-24T14:05:16;3.50;;;3.20;;
13439;SDS011;6792;57.698;11.946;2023-04-24T14:07:47;4.97;;;3.55;;
13439;SDS011;6792;57.698;11.946;2023-04-24T14:10:17;4.33;;;3.27;;
13439;SDS011;6792;57.698;11.946;2023-04-24T14:12:46;4.65;;;3.87;;
13439;SDS011;6792;57.698;11.946;2023-04-24T14:15:16;4.62;;;3.95;;
13439;SDS011;6792;57.698;11.946;2023-04-24T14:17:47;5.72;;;4.17;;
13439;SDS011;6792;57.698;11.946;2023-04-24T14:20:16;6.65;;;4.50;;
13439;SDS011;6792;57.698;11.946;2023-04-24T14:22:49;6.10;;;4.35;;
13439;SDS011;6792;57.698;11.946;2023-04-24T14:25:18;6.33;;;4.17;;
13439;SDS011;6792;57.698;11.946;2023-04-24T14:27:49;7.80;;;4.42;;
13439;SDS011;6792;57.698;11.946;2023-04-24T14:30:18;5.83;;;4.28;;
13439;SDS011;6792;57.698;11.946;2023-04-24T14:32:48;6.05;;;4.10;;
13439;SDS011;6792;57.698;11.946;2023-04-24T14:35:17;8.48;;;4.20;;
13439;SDS011;6792;57.698;11.946;2023-04-24T14:37:46;5.05;;;4.20;;
13439;SDS011;6792;57.698;11.946;2023-04-24T14:40:16;4.72;;;3.85;;
13439;SDS011;6792;57.698;11.946;2023-04-24T14:42:48;4.25;;;3.85;;
13439;SDS011;6792;57.698;11.946;2023-04-24T14:45:20;4.53;;;4.10;;
13439;SDS011;6792;57.698;11.946;2023-04-24T14:47:49;4.35;;;3.85;;
13439;SDS011;6792;57.698;11.946;2023-04-24T14:50:19;5.25;;;4.00;;
13439;SDS011;6792;57.698;11.946;2023-04-24T14:52:48;7.50;;;3.70;;
13439;SDS011;6792;57.698;11.946;2023-04-24T14:55:18;6.35;;;4.40;;
13439;SDS011;6792;57.698;11.946;2023-04-24T14:57:47;5.22;;;4.08;;
13439;SDS011;6792;57.698;11.946;2023-04-24T15:00:17;4.87;;;4.30;;
13439;SDS011;6792;57.698;11.946;2023-04-24T15:02:49;4.70;;;4.12;;
13439;SDS011;6792;57.698;11.946;2023-04-24T15:05:18;5.60;;;3.90;;